sensor_id;sensor_type;location;lat;lon;timestamp;P1;durP1;ratioP1;P2;durP2;ratioP2
9160;SDS011;4615;51.340;8.288;2024-03-22T00:02:19;31.70;;;28.38;;
9160;SDS011;4615;51.340;8.288;2024-03-22T00:04:44;32.67;;;29.27;;
9160;SDS011;4615;51.340;8.288;2024-03-22T00:07:10;32.65;;;29.15;;
9160;SDS011;4615;51.340;8.288;2024-03-22T00:09:36;33.22;;;29.63;;
9160;SDS011;4615;51.340;8.288;2024-03-22T00:12:02;33.38;;;29.88;;
9160;SDS011;4615;51.340;8.288;2024-03-22T00:14:29;33.70;;;30.10;;
9160;SDS011;4615;51.340;8.288;2024-03-22T00:16:55;34.07;;;30.27;;
9160;SDS011;4615;51.340;8.288;2024-03-22T00:19:22;34.13;;;30.10;;
9160;SDS011;4615;51.340;8.288;2024-03-22T00:21:48;35.45;;;30.95;;
9160;SDS011;4615;51.340;8.288;2024-03-22T00:24:14;35.47;;;30.75;;
9160;SDS011;4615;51.340;8.288;2024-03-22T00:26:40;35.05;;;30.20;;
9160;SDS011;4615;51.340;8.288;2024-03-22T00:29:05;35.73;;;30.57;;
9160;SDS011;4615;51.340;8.288;2024-03-22T00:31:32;36.17;;;31.00;;
9160;SDS011;4615;51.340;8.288;2024-03-22T00:33:57;36.47;;;31.47;;
9160;SDS011;4615;51.340;8.288;2024-03-22T00:36:25;36.55;;;30.63;;
9160;SDS011;4615;51.340;8.288;2024-03-22T00:38:50;36.23;;;31.90;;
9160;SDS011;4615;51.340;8.288;2024-03-22T00:41:17;36.17;;;30.83;;
9160;SDS011;4615;51.340;8.288;2024-03-22T00:43:42;38.13;;;32.17;;
9160;SDS011;4615;51.340;8.288;2024-03-22T00:46:08;35.80;;;31.17;;
9160;SDS011;4615;51.340;8.288;2024-03-22T00:48:34;37.77;;;32.00;;
9160;SDS011;4615;51.340;8.288;2024-03-22T00:51:01;35.95;;;30.30;;
9160;SDS011;4615;51.340;8.288;2024-03-22T00:53:28;37.60;;;31.87;;
9160;SDS011;4615;51.340;8.288;2024-03-22T00:55:55;36.63;;;30.80;;
9160;SDS011;4615;51.340;8.288;2024-03-22T00:58:21;37.33;;;31.35;;
9160;SDS011;4615;51.340;8.288;2024-03-22T01:00:47;39.15;;;32.42;;
9160;SDS011;4615;51.340;8.288;2024-03-22T01:03:13;38.93;;;31.37;;
9160;SDS011;4615;51.340;8.288;2024-03-22T01:05:39;38.28;;;31.10;;
9160;SDS011;4615;51.340;8.288;2024-03-22T01:08:05;39.58;;;32.30;;
9160;SDS011;4615;51.340;8.288;2024-03-22T01:10:34;39.58;;;32.33;;
9160;SDS011;4615;51.340;8.288;2024-03-22T01:12:59;38.10;;;32.05;;
9160;SDS011;4615;51.340;8.288;2024-03-22T01:15:26;37.63;;;31.90;;
9160;SDS011;4615;51.340;8.288;2024-03-22T01:17:52;38.45;;;31.77;;
9160;SDS011;4615;51.340;8.288;2024-03-22T01:20:18;38.85;;;31.73;;
9160;SDS011;4615;51.340;8.288;2024-03-22T01:22:43;38.40;;;32.27;;
9160;SDS011;4615;51.340;8.288;2024-03-22T01:25:11;38.47;;;32.47;;
9160;SDS011;4615;51.340;8.288;2024-03-22T01:27:37;39.53;;;32.47;;
9160;SDS011;4615;51.340;8.288;2024-03-22T01:30:04;40.13;;;32.72;;
9160;SDS011;4615;51.340;8.288;2024-03-22T01:32:30;40.47;;;32.47;;
9160;SDS011;4615;51.340;8.288;2024-03-22T01:34:56;39.75;;;32.55;;
9160;SDS011;4615;51.340;8.288;2024-03-22T01:37:22;37.47;;;31.30;;
9160;SDS011;4615;51.340;8.288;2024-03-22T01:39:48;40.60;;;32.53;;
9160;SDS011;4615;51.340;8.288;2024-03-22T01:42:13;38.37;;;31.17;;
9160;SDS011;4615;51.340;8.288;2024-03-22T01:44:41;37.42;;;31.33;;
9160;SDS011;4615;51.340;8.288;2024-03-22T01:47:07;37.67;;;31.30;;
9160;SDS011;4615;51.340;8.288;2024-03-22T01:49:33;38.70;;;31.95;;
9160;SDS011;4615;51.340;8.288;2024-03-22T01:51:59;38.30;;;31.57;;
9160;SDS011;4615;51.340;8.288;2024-03-22T01:54:25;38.85;;;31.75;;
9160;SDS011;4615;51.340;8.288;2024-03-22T01:56:50;38.53;;;31.47;;
9160;SDS011;4615;51.340;8.288;2024-03-22T01:59:17;38.83;;;31.67;;
9160;SDS011;4615;51.340;8.288;2024-03-22T02:01:44;40.28;;;32.88;;
9160;SDS011;4615;51.340;8.288;2024-03-22T02:04:10;41.03;;;32.13;;
9160;SDS011;4615;51.340;8.288;2024-03-22T02:06:35;38.80;;;31.77;;
9160;SDS011;4615;51.340;8.288;2024-03-22T02:09:02;40.05;;;32.45;;
9160;SDS011;4615;51.340;8.288;2024-03-22T02:11:29;38.40;;;31.98;;
9160;SDS011;4615;51.340;8.288;2024-03-22T02:13:56;42.65;;;32.83;;
9160;SDS011;4615;51.340;8.288;2024-03-22T02:16:22;40.17;;;31.60;;
9160;SDS011;4615;51.340;8.288;2024-03-22T02:18:49;41.22;;;32.42;;
9160;SDS011;4615;51.340;8.288;2024-03-22T02:21:15;40.67;;;32.08;;
9160;SDS011;4615;51.340;8.288;2024-03-22T02:23:43;39.88;;;32.03;;
9160;SDS011;4615;51.340;8.288;2024-03-22T02:26:08;39.70;;;31.55;;
9160;SDS011;4615;51.340;8.288;2024-03-22T02:28:35;39.90;;;32.28;;
9160;SDS011;4615;51.340;8.288;2024-03-22T02:31:01;39.22;;;31.35;;
9160;SDS011;4615;51.340;8.288;2024-03-22T02:33:27;41.28;;;32.15;;
9160;SDS011;4615;51.340;8.288;2024-03-22T02:35:53;38.80;;;31.27;;
9160;SDS011;4615;51.340;8.288;2024-03-22T02:38:19;40.35;;;31.33;;
9160;SDS011;4615;51.340;8.288;2024-03-22T02:40:46;39.47;;;31.00;;
9160;SDS011;4615;51.340;8.288;2024-03-22T02:43:13;40.53;;;31.97;;
9160;SDS011;4615;51.340;8.288;2024-03-22T02:45:38;39.50;;;30.90;;
9160;SDS011;4615;51.340;8.288;2024-03-22T02:48:05;37.78;;;29.63;;
9160;SDS011;4615;51.340;8.288;2024-03-22T02:50:32;40.60;;;31.50;;
9160;SDS011;4615;51.340;8.288;2024-03-22T02:52:58;38.40;;;30.02;;
9160;SDS011;4615;51.340;8.288;2024-03-22T02:55:24;37.83;;;30.40;;
9160;SDS011;4615;51.340;8.288;2024-03-22T02:57:51;38.07;;;29.77;;
9160;SDS011;4615;51.340;8.288;2024-03-22T03:00:17;37.97;;;29.42;;
9160;SDS011;4615;51.340;8.288;2024-03-22T03:02:43;37.67;;;29.17;;
9160;SDS011;4615;51.340;8.288;2024-03-22T03:05:09;37.85;;;29.25;;
9160;SDS011;4615;51.340;8.288;2024-03-22T03:07:35;36.38;;;28.42;;
9160;SDS011;4615;51.340;8.288;2024-03-22T03:10:01;37.83;;;29.00;;
9160;SDS011;4615;51.340;8.288;2024-03-22T03:12:27;38.17;;;29.07;;
9160;SDS011;4615;51.340;8.288;2024-03-22T03:14:54;36.40;;;28.10;;
9160;SDS011;4615;51.340;8.288;2024-03-22T03:17:20;38.13;;;28.30;;
9160;SDS011;4615;51.340;8.288;2024-03-22T03:19:48;37.25;;;27.95;;
9160;SDS011;4615;51.340;8.288;2024-03-22T03:22:13;37.93;;;28.50;;
9160;SDS011;4615;51.340;8.288;2024-03-22T03:24:40;36.25;;;27.52;;
9160;SDS011;4615;51.340;8.288;2024-03-22T03:27:05;38.33;;;28.33;;
9160;SDS011;4615;51.340;8.288;2024-03-22T03:29:32;36.43;;;28.23;;
9160;SDS011;4615;51.340;8.288;2024-03-22T03:31:59;36.40;;;27.37;;
9160;SDS011;4615;51.340;8.288;2024-03-22T03:34:25;36.58;;;27.92;;
9160;SDS011;4615;51.340;8.288;2024-03-22T03:36:50;35.97;;;26.25;;
9160;SDS011;4615;51.340;8.288;2024-03-22T03:39:17;35.72;;;26.65;;
9160;SDS011;4615;51.340;8.288;2024-03-22T03:41:42;36.53;;;27.37;;
9160;SDS011;4615;51.340;8.288;2024-03-22T03:44:08;35.70;;;27.00;;
9160;SDS011;4615;51.340;8.288;2024-03-22T03:46:34;34.90;;;26.60;;
9160;SDS011;4615;51.340;8.288;2024-03-22T03:49:01;34.72;;;26.77;;
9160;SDS011;4615;51.340;8.288;2024-03-22T03:51:27;36.27;;;27.00;;
9160;SDS011;4615;51.340;8.288;2024-03-22T03:53:53;34.90;;;25.98;;
9160;SDS011;4615;51.340;8.288;2024-03-22T03:56:19;34.08;;;26.20;;
9160;SDS011;4615;51.340;8.288;2024-03-22T03:58:45;33.40;;;25.50;;
9160;SDS011;4615;51.340;8.288;2024-03-22T04:01:11;33.47;;;25.20;;
9160;SDS011;4615;51.340;8.288;2024-03-22T04:03:37;33.88;;;25.98;;
9160;SDS011;4615;51.340;8.288;2024-03-22T04:06:04;33.63;;;25.37;;
9160;SDS011;4615;51.340;8.288;2024-03-22T04:08:30;34.08;;;24.92;;
9160;SDS011;4615;51.340;8.288;2024-03-22T04:10:56;33.83;;;25.35;;
9160;SDS011;4615;51.340;8.288;2024-03-22T04:13:23;32.88;;;25.90;;
9160;SDS011;4615;51.340;8.288;2024-03-22T04:15:48;31.90;;;24.10;;
9160;SDS011;4615;51.340;8.288;2024-03-22T04:18:15;32.97;;;24.80;;
9160;SDS011;4615;51.340;8.288;2024-03-22T04:20:40;32.13;;;24.47;;
9160;SDS011;4615;51.340;8.288;2024-03-22T04:23:08;32.72;;;25.10;;
9160;SDS011;4615;51.340;8.288;2024-03-22T04:25:33;31.58;;;24.15;;
9160;SDS011;4615;51.340;8.288;2024-03-22T04:27:59;32.10;;;24.40;;
9160;SDS011;4615;51.340;8.288;2024-03-22T04:30:25;31.23;;;23.70;;
9160;SDS011;4615;51.340;8.288;2024-03-22T04:32:51;31.38;;;24.48;;
9160;SDS011;4615;51.340;8.288;2024-03-22T04:35:17;30.97;;;24.17;;
9160;SDS011;4615;51.340;8.288;2024-03-22T04:37:43;31.70;;;24.05;;
9160;SDS011;4615;51.340;8.288;2024-03-22T04:40:11;32.22;;;24.50;;
9160;SDS011;4615;51.340;8.288;2024-03-22T04:42:38;31.33;;;24.25;;
9160;SDS011;4615;51.340;8.288;2024-03-22T04:45:04;31.37;;;23.90;;
9160;SDS011;4615;51.340;8.288;2024-03-22T04:47:31;32.03;;;24.17;;
9160;SDS011;4615;51.340;8.288;2024-03-22T04:49:57;29.40;;;22.80;;
9160;SDS011;4615;51.340;8.288;2024-03-22T04:52:23;30.23;;;22.77;;
9160;SDS011;4615;51.340;8.288;2024-03-22T04:54:49;30.88;;;23.17;;
9160;SDS011;4615;51.340;8.288;2024-03-22T04:57:16;30.25;;;23.80;;
9160;SDS011;4615;51.340;8.288;2024-03-22T04:59:42;28.73;;;22.67;;
9160;SDS011;4615;51.340;8.288;2024-03-22T05:02:08;28.33;;;22.60;;
9160;SDS011;4615;51.340;8.288;2024-03-22T05:04:34;29.45;;;23.08;;
9160;SDS011;4615;51.340;8.288;2024-03-22T05:06:59;29.40;;;22.93;;
9160;SDS011;4615;51.340;8.288;2024-03-22T05:09:26;27.67;;;22.13;;
9160;SDS011;4615;51.340;8.288;2024-03-22T05:11:51;28.52;;;22.80;;
9160;SDS011;4615;51.340;8.288;2024-03-22T05:14:19;29.30;;;22.58;;
9160;SDS011;4615;51.340;8.288;2024-03-22T05:16:44;29.77;;;23.02;;
9160;SDS011;4615;51.340;8.288;2024-03-22T05:19:11;28.42;;;21.77;;
9160;SDS011;4615;51.340;8.288;2024-03-22T05:21:36;25.33;;;21.17;;
9160;SDS011;4615;51.340;8.288;2024-03-22T05:24:02;26.83;;;20.73;;
9160;SDS011;4615;51.340;8.288;2024-03-22T05:26:28;27.60;;;21.97;;
9160;SDS011;4615;51.340;8.288;2024-03-22T05:28:57;25.27;;;20.48;;
9160;SDS011;4615;51.340;8.288;2024-03-22T05:31:24;27.40;;;20.50;;
9160;SDS011;4615;51.340;8.288;2024-03-22T05:33:50;28.58;;;20.85;;
9160;SDS011;4615;51.340;8.288;2024-03-22T05:36:15;27.13;;;21.23;;
9160;SDS011;4615;51.340;8.288;2024-03-22T05:38:42;27.00;;;21.13;;
9160;SDS011;4615;51.340;8.288;2024-03-22T05:41:07;24.33;;;19.83;;
9160;SDS011;4615;51.340;8.288;2024-03-22T05:43:33;25.60;;;20.27;;
9160;SDS011;4615;51.340;8.288;2024-03-22T05:45:59;24.60;;;19.13;;
9160;SDS011;4615;51.340;8.288;2024-03-22T05:48:26;23.35;;;19.70;;
9160;SDS011;4615;51.340;8.288;2024-03-22T05:50:52;24.65;;;20.35;;
9160;SDS011;4615;51.340;8.288;2024-03-22T05:53:18;23.38;;;19.38;;
9160;SDS011;4615;51.340;8.288;2024-03-22T05:55:44;24.57;;;19.60;;
9160;SDS011;4615;51.340;8.288;2024-03-22T05:58:10;26.52;;;19.60;;
9160;SDS011;4615;51.340;8.288;2024-03-22T06:00:35;26.03;;;19.40;;
9160;SDS011;4615;51.340;8.288;2024-03-22T06:03:02;23.58;;;19.63;;
9160;SDS011;4615;51.340;8.288;2024-03-22T06:05:29;24.63;;;19.83;;
9160;SDS011;4615;51.340;8.288;2024-03-22T06:07:55;22.97;;;18.83;;
9160;SDS011;4615;51.340;8.288;2024-03-22T06:10:21;25.83;;;19.90;;
9160;SDS011;4615;51.340;8.288;2024-03-22T06:12:47;23.17;;;18.75;;
9160;SDS011;4615;51.340;8.288;2024-03-22T06:15:12;25.23;;;19.70;;
9160;SDS011;4615;51.340;8.288;2024-03-22T06:17:40;22.98;;;18.85;;
9160;SDS011;4615;51.340;8.288;2024-03-22T06:20:06;23.88;;;19.08;;
9160;SDS011;4615;51.340;8.288;2024-03-22T06:22:36;23.95;;;18.70;;
9160;SDS011;4615;51.340;8.288;2024-03-22T06:25:01;21.65;;;17.83;;
9160;SDS011;4615;51.340;8.288;2024-03-22T06:27:30;22.90;;;18.77;;
9160;SDS011;4615;51.340;8.288;2024-03-22T06:29:55;22.40;;;18.23;;
9160;SDS011;4615;51.340;8.288;2024-03-22T06:32:22;20.40;;;17.48;;
9160;SDS011;4615;51.340;8.288;2024-03-22T06:34:47;23.50;;;17.95;;
9160;SDS011;4615;51.340;8.288;2024-03-22T06:37:13;23.58;;;17.83;;
9160;SDS011;4615;51.340;8.288;2024-03-22T06:39:40;20.37;;;17.37;;
9160;SDS011;4615;51.340;8.288;2024-03-22T06:42:06;21.30;;;16.77;;
9160;SDS011;4615;51.340;8.288;2024-03-22T06:44:32;22.07;;;17.33;;
9160;SDS011;4615;51.340;8.288;2024-03-22T06:46:58;20.05;;;17.17;;
9160;SDS011;4615;51.340;8.288;2024-03-22T06:49:23;20.50;;;17.30;;
9160;SDS011;4615;51.340;8.288;2024-03-22T06:51:50;21.48;;;17.52;;
9160;SDS011;4615;51.340;8.288;2024-03-22T06:54:15;20.13;;;16.65;;
9160;SDS011;4615;51.340;8.288;2024-03-22T06:56:43;20.42;;;17.30;;
9160;SDS011;4615;51.340;8.288;2024-03-22T06:59:08;19.60;;;16.67;;
9160;SDS011;4615;51.340;8.288;2024-03-22T07:01:35;19.17;;;16.35;;
9160;SDS011;4615;51.340;8.288;2024-03-22T07:04:00;22.90;;;17.73;;
9160;SDS011;4615;51.340;8.288;2024-03-22T07:06:26;21.35;;;17.80;;
9160;SDS011;4615;51.340;8.288;2024-03-22T07:08:52;21.97;;;17.73;;
9160;SDS011;4615;51.340;8.288;2024-03-22T07:11:18;21.38;;;18.08;;
9160;SDS011;4615;51.340;8.288;2024-03-22T07:13:45;22.50;;;18.83;;
9160;SDS011;4615;51.340;8.288;2024-03-22T07:16:11;22.10;;;19.15;;
9160;SDS011;4615;51.340;8.288;2024-03-22T07:18:37;23.80;;;18.85;;
9160;SDS011;4615;51.340;8.288;2024-03-22T07:21:03;20.98;;;18.67;;
9160;SDS011;4615;51.340;8.288;2024-03-22T07:23:29;22.03;;;18.13;;
9160;SDS011;4615;51.340;8.288;2024-03-22T07:25:55;20.90;;;17.65;;
9160;SDS011;4615;51.340;8.288;2024-03-22T07:28:21;20.43;;;17.37;;
9160;SDS011;4615;51.340;8.288;2024-03-22T07:30:48;21.70;;;17.17;;
9160;SDS011;4615;51.340;8.288;2024-03-22T07:33:14;21.25;;;17.08;;
9160;SDS011;4615;51.340;8.288;2024-03-22T07:35:42;19.33;;;17.20;;
9160;SDS011;4615;51.340;8.288;2024-03-22T07:38:08;19.83;;;17.23;;
9160;SDS011;4615;51.340;8.288;2024-03-22T07:40:34;19.75;;;17.17;;
9160;SDS011;4615;51.340;8.288;2024-03-22T07:42:59;19.33;;;17.20;;
9160;SDS011;4615;51.340;8.288;2024-03-22T07:45:30;21.00;;;17.47;;
9160;SDS011;4615;51.340;8.288;2024-03-22T07:47:57;21.07;;;18.00;;
9160;SDS011;4615;51.340;8.288;2024-03-22T07:50:23;20.75;;;18.55;;
9160;SDS011;4615;51.340;8.288;2024-03-22T07:52:49;20.33;;;17.93;;
9160;SDS011;4615;51.340;8.288;2024-03-22T07:55:16;21.23;;;18.35;;
9160;SDS011;4615;51.340;8.288;2024-03-22T07:57:42;21.05;;;18.17;;
9160;SDS011;4615;51.340;8.288;2024-03-22T08:00:08;20.25;;;18.08;;
9160;SDS011;4615;51.340;8.288;2024-03-22T08:02:34;19.80;;;17.67;;
9160;SDS011;4615;51.340;8.288;2024-03-22T08:05:02;20.25;;;17.67;;
9160;SDS011;4615;51.340;8.288;2024-03-22T08:07:29;21.58;;;18.50;;
9160;SDS011;4615;51.340;8.288;2024-03-22T08:09:55;19.98;;;17.23;;
9160;SDS011;4615;51.340;8.288;2024-03-22T08:12:20;19.77;;;17.67;;
9160;SDS011;4615;51.340;8.288;2024-03-22T08:14:47;20.95;;;17.65;;
9160;SDS011;4615;51.340;8.288;2024-03-22T08:17:12;19.93;;;17.73;;
9160;SDS011;4615;51.340;8.288;2024-03-22T08:19:40;20.80;;;17.48;;
9160;SDS011;4615;51.340;8.288;2024-03-22T08:22:06;19.17;;;17.15;;
9160;SDS011;4615;51.340;8.288;2024-03-22T08:24:33;23.60;;;17.90;;
9160;SDS011;4615;51.340;8.288;2024-03-22T08:26:58;20.77;;;18.03;;
9160;SDS011;4615;51.340;8.288;2024-03-22T08:29:25;20.17;;;16.70;;
9160;SDS011;4615;51.340;8.288;2024-03-22T08:31:50;18.73;;;16.73;;
9160;SDS011;4615;51.340;8.288;2024-03-22T08:34:17;19.85;;;17.33;;
9160;SDS011;4615;51.340;8.288;2024-03-22T08:36:42;20.00;;;17.48;;
9160;SDS011;4615;51.340;8.288;2024-03-22T08:39:10;18.80;;;16.80;;
9160;SDS011;4615;51.340;8.288;2024-03-22T08:41:35;20.13;;;17.33;;
9160;SDS011;4615;51.340;8.288;2024-03-22T08:44:02;19.25;;;17.05;;
9160;SDS011;4615;51.340;8.288;2024-03-22T08:46:27;19.67;;;16.80;;
9160;SDS011;4615;51.340;8.288;2024-03-22T08:48:53;18.75;;;16.55;;
9160;SDS011;4615;51.340;8.288;2024-03-22T08:51:19;19.57;;;16.93;;
9160;SDS011;4615;51.340;8.288;2024-03-22T08:53:45;18.23;;;16.15;;
9160;SDS011;4615;51.340;8.288;2024-03-22T08:56:12;18.20;;;16.23;;
9160;SDS011;4615;51.340;8.288;2024-03-22T08:58:38;18.45;;;15.85;;
9160;SDS011;4615;51.340;8.288;2024-03-22T09:01:04;19.90;;;16.85;;
9160;SDS011;4615;51.340;8.288;2024-03-22T09:03:30;18.05;;;15.90;;
9160;SDS011;4615;51.340;8.288;2024-03-22T09:05:56;17.33;;;15.43;;
9160;SDS011;4615;51.340;8.288;2024-03-22T09:08:23;17.05;;;15.25;;
9160;SDS011;4615;51.340;8.288;2024-03-22T09:10:48;17.15;;;15.20;;
9160;SDS011;4615;51.340;8.288;2024-03-22T09:13:16;16.83;;;14.93;;
9160;SDS011;4615;51.340;8.288;2024-03-22T09:15:41;17.13;;;14.90;;
9160;SDS011;4615;51.340;8.288;2024-03-22T09:18:08;16.67;;;14.23;;
9160;SDS011;4615;51.340;8.288;2024-03-22T09:20:33;16.35;;;14.57;;
9160;SDS011;4615;51.340;8.288;2024-03-22T09:23:00;15.82;;;13.85;;
9160;SDS011;4615;51.340;8.288;2024-03-22T09:25:25;15.23;;;13.65;;
9160;SDS011;4615;51.340;8.288;2024-03-22T09:27:52;14.35;;;12.85;;
9160;SDS011;4615;51.340;8.288;2024-03-22T09:30:18;14.52;;;12.93;;
9160;SDS011;4615;51.340;8.288;2024-03-22T09:32:45;14.40;;;12.90;;
9160;SDS011;4615;51.340;8.288;2024-03-22T09:35:11;13.43;;;12.03;;
9160;SDS011;4615;51.340;8.288;2024-03-22T09:37:39;14.77;;;11.75;;
9160;SDS011;4615;51.340;8.288;2024-03-22T09:40:05;15.07;;;12.60;;
9160;SDS011;4615;51.340;8.288;2024-03-22T09:42:33;12.05;;;10.75;;
9160;SDS011;4615;51.340;8.288;2024-03-22T09:45:01;12.77;;;11.40;;
9160;SDS011;4615;51.340;8.288;2024-03-22T09:47:30;12.43;;;11.07;;
9160;SDS011;4615;51.340;8.288;2024-03-22T09:49:55;12.93;;;11.57;;
9160;SDS011;4615;51.340;8.288;2024-03-22T09:52:22;12.18;;;10.80;;
9160;SDS011;4615;51.340;8.288;2024-03-22T09:54:48;11.43;;;10.27;;
9160;SDS011;4615;51.340;8.288;2024-03-22T09:57:16;12.77;;;11.35;;
9160;SDS011;4615;51.340;8.288;2024-03-22T09:59:43;11.40;;;10.20;;
9160;SDS011;4615;51.340;8.288;2024-03-22T10:02:10;10.17;;;9.07;;
9160;SDS011;4615;51.340;8.288;2024-03-22T10:04:37;10.45;;;8.68;;
9160;SDS011;4615;51.340;8.288;2024-03-22T10:07:04;9.60;;;8.30;;
9160;SDS011;4615;51.340;8.288;2024-03-22T10:09:29;9.90;;;7.97;;
9160;SDS011;4615;51.340;8.288;2024-03-22T10:11:56;8.18;;;7.38;;
9160;SDS011;4615;51.340;8.288;2024-03-22T10:14:21;8.83;;;7.73;;
9160;SDS011;4615;51.340;8.288;2024-03-22T10:16:50;9.35;;;7.53;;
9160;SDS011;4615;51.340;8.288;2024-03-22T10:19:15;8.73;;;7.43;;
9160;SDS011;4615;51.340;8.288;2024-03-22T10:21:43;11.07;;;8.65;;
9160;SDS011;4615;51.340;8.288;2024-03-22T10:24:08;8.82;;;7.28;;
9160;SDS011;4615;51.340;8.288;2024-03-22T10:26:35;7.60;;;6.80;;
9160;SDS011;4615;51.340;8.288;2024-03-22T10:29:01;7.60;;;6.80;;
9160;SDS011;4615;51.340;8.288;2024-03-22T10:31:31;8.30;;;6.55;;
9160;SDS011;4615;51.340;8.288;2024-03-22T10:33:57;7.77;;;6.23;;
9160;SDS011;4615;51.340;8.288;2024-03-22T10:36:24;8.27;;;6.53;;
9160;SDS011;4615;51.340;8.288;2024-03-22T10:38:51;6.85;;;5.70;;
9160;SDS011;4615;51.340;8.288;2024-03-22T10:41:19;6.85;;;5.78;;
9160;SDS011;4615;51.340;8.288;2024-03-22T10:43:45;6.80;;;5.75;;
9160;SDS011;4615;51.340;8.288;2024-03-22T10:46:11;6.57;;;5.90;;
9160;SDS011;4615;51.340;8.288;2024-03-22T10:48:37;6.53;;;5.93;;
9160;SDS011;4615;51.340;8.288;2024-03-22T10:51:04;6.43;;;5.78;;
9160;SDS011;4615;51.340;8.288;2024-03-22T10:53:30;7.18;;;5.57;;
9160;SDS011;4615;51.340;8.288;2024-03-22T10:55:59;7.80;;;6.07;;
9160;SDS011;4615;51.340;8.288;2024-03-22T10:58:25;5.97;;;5.35;;
9160;SDS011;4615;51.340;8.288;2024-03-22T11:00:52;6.70;;;5.10;;
9160;SDS011;4615;51.340;8.288;2024-03-22T11:03:19;5.87;;;5.00;;
9160;SDS011;4615;51.340;8.288;2024-03-22T11:05:45;5.95;;;4.95;;
9160;SDS011;4615;51.340;8.288;2024-03-22T11:08:11;6.43;;;5.43;;
9160;SDS011;4615;51.340;8.288;2024-03-22T11:10:37;5.73;;;4.90;;
9160;SDS011;4615;51.340;8.288;2024-03-22T11:13:05;6.03;;;5.27;;
9160;SDS011;4615;51.340;8.288;2024-03-22T11:15:32;5.72;;;5.13;;
9160;SDS011;4615;51.340;8.288;2024-03-22T11:17:58;5.88;;;5.13;;
9160;SDS011;4615;51.340;8.288;2024-03-22T11:20:24;6.10;;;4.70;;
9160;SDS011;4615;51.340;8.288;2024-03-22T11:22:50;6.73;;;4.90;;
9160;SDS011;4615;51.340;8.288;2024-03-22T11:25:17;5.90;;;4.93;;
9160;SDS011;4615;51.340;8.288;2024-03-22T11:27:43;5.30;;;4.50;;
9160;SDS011;4615;51.340;8.288;2024-03-22T11:30:11;5.93;;;4.35;;
9160;SDS011;4615;51.340;8.288;2024-03-22T11:32:36;5.65;;;4.20;;
9160;SDS011;4615;51.340;8.288;2024-03-22T11:35:08;5.10;;;4.60;;
9160;SDS011;4615;51.340;8.288;2024-03-22T11:37:34;5.00;;;3.97;;
9160;SDS011;4615;51.340;8.288;2024-03-22T11:40:01;5.70;;;4.10;;
9160;SDS011;4615;51.340;8.288;2024-03-22T11:42:30;4.53;;;3.70;;
9160;SDS011;4615;51.340;8.288;2024-03-22T11:44:56;5.18;;;4.05;;
9160;SDS011;4615;51.340;8.288;2024-03-22T11:47:23;5.10;;;4.60;;
9160;SDS011;4615;51.340;8.288;2024-03-22T11:49:50;6.60;;;4.60;;
9160;SDS011;4615;51.340;8.288;2024-03-22T11:52:15;4.90;;;4.40;;
9160;SDS011;4615;51.340;8.288;2024-03-22T11:54:41;4.50;;;4.10;;
9160;SDS011;4615;51.340;8.288;2024-03-22T11:57:08;5.10;;;4.60;;
9160;SDS011;4615;51.340;8.288;2024-03-22T11:59:34;5.32;;;4.82;;
9160;SDS011;4615;51.340;8.288;2024-03-22T12:02:00;7.43;;;4.83;;
9160;SDS011;4615;51.340;8.288;2024-03-22T12:04:28;5.20;;;4.70;;
9160;SDS011;4615;51.340;8.288;2024-03-22T12:06:53;4.50;;;4.10;;
9160;SDS011;4615;51.340;8.288;2024-03-22T12:09:22;5.30;;;4.40;;
9160;SDS011;4615;51.340;8.288;2024-03-22T12:11:48;5.23;;;4.70;;
9160;SDS011;4615;51.340;8.288;2024-03-22T12:14:14;4.82;;;4.30;;
9160;SDS011;4615;51.340;8.288;2024-03-22T12:16:40;5.90;;;4.80;;
9160;SDS011;4615;51.340;8.288;2024-03-22T12:19:06;5.22;;;4.68;;
9160;SDS011;4615;51.340;8.288;2024-03-22T12:21:33;6.33;;;4.90;;
9160;SDS011;4615;51.340;8.288;2024-03-22T12:24:00;5.57;;;4.65;;
9160;SDS011;4615;51.340;8.288;2024-03-22T12:26:25;5.53;;;4.30;;
9160;SDS011;4615;51.340;8.288;2024-03-22T12:28:53;5.70;;;4.35;;
9160;SDS011;4615;51.340;8.288;2024-03-22T12:31:19;5.32;;;4.60;;
9160;SDS011;4615;51.340;8.288;2024-03-22T12:33:45;5.70;;;4.60;;
9160;SDS011;4615;51.340;8.288;2024-03-22T12:36:10;6.00;;;3.95;;
9160;SDS011;4615;51.340;8.288;2024-03-22T12:38:38;4.57;;;3.70;;
9160;SDS011;4615;51.340;8.288;2024-03-22T12:41:04;4.05;;;3.55;;
9160;SDS011;4615;51.340;8.288;2024-03-22T12:43:31;4.38;;;3.50;;
9160;SDS011;4615;51.340;8.288;2024-03-22T12:45:56;4.20;;;3.60;;
9160;SDS011;4615;51.340;8.288;2024-03-22T12:48:23;4.10;;;3.60;;
9160;SDS011;4615;51.340;8.288;2024-03-22T12:50:48;4.77;;;3.00;;
9160;SDS011;4615;51.340;8.288;2024-03-22T12:53:15;3.42;;;3.00;;
9160;SDS011;4615;51.340;8.288;2024-03-22T12:55:42;3.42;;;2.85;;
9160;SDS011;4615;51.340;8.288;2024-03-22T12:58:10;3.60;;;2.47;;
9160;SDS011;4615;51.340;8.288;2024-03-22T13:00:36;3.10;;;2.20;;
9160;SDS011;4615;51.340;8.288;2024-03-22T13:03:01;3.27;;;2.20;;
9160;SDS011;4615;51.340;8.288;2024-03-22T13:05:28;2.67;;;2.38;;
9160;SDS011;4615;51.340;8.288;2024-03-22T13:07:53;2.33;;;1.90;;
9160;SDS011;4615;51.340;8.288;2024-03-22T13:10:20;2.70;;;2.13;;
9160;SDS011;4615;51.340;8.288;2024-03-22T13:12:47;3.60;;;2.00;;
9160;SDS011;4615;51.340;8.288;2024-03-22T13:15:13;2.53;;;2.03;;
9160;SDS011;4615;51.340;8.288;2024-03-22T13:17:39;2.33;;;2.03;;
9160;SDS011;4615;51.340;8.288;2024-03-22T13:20:06;2.60;;;1.98;;
9160;SDS011;4615;51.340;8.288;2024-03-22T13:22:35;2.45;;;2.15;;
9160;SDS011;4615;51.340;8.288;2024-03-22T13:25:01;2.70;;;2.40;;
9160;SDS011;4615;51.340;8.288;2024-03-22T13:27:31;3.30;;;2.20;;
9160;SDS011;4615;51.340;8.288;2024-03-22T13:29:59;2.95;;;2.33;;
9160;SDS011;4615;51.340;8.288;2024-03-22T13:32:24;3.75;;;2.42;;
9160;SDS011;4615;51.340;8.288;2024-03-22T13:34:50;4.10;;;2.50;;
9160;SDS011;4615;51.340;8.288;2024-03-22T13:37:16;3.10;;;2.57;;
9160;SDS011;4615;51.340;8.288;2024-03-22T13:39:42;3.50;;;3.20;;
9160;SDS011;4615;51.340;8.288;2024-03-22T13:42:07;4.47;;;3.20;;
9160;SDS011;4615;51.340;8.288;2024-03-22T13:44:34;4.38;;;3.70;;
9160;SDS011;4615;51.340;8.288;2024-03-22T13:47:01;3.87;;;3.40;;
9160;SDS011;4615;51.340;8.288;2024-03-22T13:49:29;3.40;;;3.10;;
9160;SDS011;4615;51.340;8.288;2024-03-22T13:51:57;5.00;;;3.50;;
9160;SDS011;4615;51.340;8.288;2024-03-22T13:54:24;4.82;;;3.47;;
9160;SDS011;4615;51.340;8.288;2024-03-22T13:56:49;4.70;;;3.40;;
9160;SDS011;4615;51.340;8.288;2024-03-22T13:59:16;4.25;;;3.70;;
9160;SDS011;4615;51.340;8.288;2024-03-22T14:01:41;5.43;;;3.93;;
9160;SDS011;4615;51.340;8.288;2024-03-22T14:04:11;3.97;;;3.58;;
9160;SDS011;4615;51.340;8.288;2024-03-22T14:06:37;4.65;;;4.13;;
9160;SDS011;4615;51.340;8.288;2024-03-22T14:09:03;5.25;;;4.20;;
9160;SDS011;4615;51.340;8.288;2024-03-22T14:11:29;5.70;;;4.50;;
9160;SDS011;4615;51.340;8.288;2024-03-22T14:13:56;5.75;;;4.28;;
9160;SDS011;4615;51.340;8.288;2024-03-22T14:16:22;5.60;;;4.60;;
9160;SDS011;4615;51.340;8.288;2024-03-22T14:18:48;5.57;;;4.40;;
9160;SDS011;4615;51.340;8.288;2024-03-22T14:21:16;6.07;;;4.70;;
9160;SDS011;4615;51.340;8.288;2024-03-22T14:23:44;5.50;;;4.50;;
9160;SDS011;4615;51.340;8.288;2024-03-22T14:26:09;5.40;;;4.40;;
9160;SDS011;4615;51.340;8.288;2024-03-22T14:28:36;5.10;;;4.60;;
9160;SDS011;4615;51.340;8.288;2024-03-22T14:31:02;6.68;;;4.60;;
9160;SDS011;4615;51.340;8.288;2024-03-22T14:33:28;5.53;;;4.50;;
9160;SDS011;4615;51.340;8.288;2024-03-22T14:35:54;6.30;;;4.40;;
9160;SDS011;4615;51.340;8.288;2024-03-22T14:38:22;6.32;;;4.30;;
9160;SDS011;4615;51.340;8.288;2024-03-22T14:40:47;5.10;;;4.13;;
9160;SDS011;4615;51.340;8.288;2024-03-22T14:43:14;6.25;;;4.65;;
9160;SDS011;4615;51.340;8.288;2024-03-22T14:45:39;4.88;;;4.18;;
9160;SDS011;4615;51.340;8.288;2024-03-22T14:48:06;5.95;;;4.70;;
9160;SDS011;4615;51.340;8.288;2024-03-22T14:50:34;5.82;;;4.40;;